Time;durP1;ratioP1;P1;durP2;ratioP2;P2;SDS_P1;SDS_P2;PMS_P1;PMS_P2;Temp;Humidity;BMP_temperature;BMP_pressure;BME280_temperature;BME280_humidity;BME280_pressure;Samples;Min_cycle;Max_cycle;Signal;HPM_P1;HPM_P2
2023/01/27 00:02:21;;;;;;;32.33;13.83;;;;;;;;;;5035451;28;20472;-79
2023/01/27 00:04:47;;;;;;;37.07;13.97;;;;;;;;;;5052802;28;20104;-80
2023/01/27 00:07:12;;;;;;;36.53;13.70;;;;;;;;;;5051879;28;20048;-76
2023/01/27 00:09:37;;;;;;;34.73;14.30;;;;;;;;;;5051417;28;20078;-80
2023/01/27 00:14:47;;;;;;;39.67;14.07;;;;;;;;;;5053369;28;20032;-79
2023/01/27 00:17:13;;;;;;;35.80;14.03;;;;;;;;;;5050985;28;20473;-73
2023/01/27 00:19:38;;;;;;;36.43;14.40;;;;;;;;;;5052674;28;20036;-80
2023/01/27 00:24:48;;;;;;;33.43;12.17;;;;;;;;;;5053039;28;20545;-75
2023/01/27 00:27:13;;;;;;;30.37;12.67;;;;;;;;;;5053054;28;20071;-80
2023/01/27 00:29:39;;;;;;;32.50;12.53;;;;;;;;;;5051055;28;20025;-75
2023/01/27 00:34:49;;;;;;;27.80;12.07;;;;;;;;;;5056801;28;20050;-81
2023/01/27 00:37:15;;;;;;;30.10;12.90;;;;;;;;;;5038139;28;20120;-74
2023/01/27 00:39:41;;;;;;;32.57;13.10;;;;;;;;;;5054658;28;20036;-75
2023/01/27 00:42:06;;;;;;;29.77;12.77;;;;;;;;;;5056142;28;20028;-75
2023/01/27 00:44:32;;;;;;;35.47;13.80;;;;;;;;;;5054556;28;20378;-80
2023/01/27 00:46:58;;;;;;;28.70;11.50;;;;;;;;;;5055030;28;20091;-75
2023/01/27 00:49:25;;;;;;;32.90;12.03;;;;;;;;;;5054902;28;20021;-79
2023/01/27 00:51:50;;;;;;;25.93;11.63;;;;;;;;;;5055906;28;20028;-80
2023/01/27 00:54:16;;;;;;;28.60;11.33;;;;;;;;;;5056201;28;20029;-74
2023/01/27 00:56:42;;;;;;;30.97;12.10;;;;;;;;;;5054778;28;20036;-79
2023/01/27 00:59:07;;;;;;;31.53;13.10;;;;;;;;;;5054997;28;20389;-80
2023/01/27 01:01:34;;;;;;;30.43;13.00;;;;;;;;;;5056360;28;20079;-80
2023/01/27 01:04:00;;;;;;;28.80;12.03;;;;;;;;;;5055629;28;20031;-76
2023/01/27 01:06:26;;;;;;;31.10;11.23;;;;;;;;;;5037695;28;20037;-80
2023/01/27 01:08:52;;;;;;;30.63;11.33;;;;;;;;;;5054194;28;20140;-80
2023/01/27 01:11:20;;;;;;;30.57;11.90;;;;;;;;;;5055743;28;20048;-77
2023/01/27 01:13:46;;;;;;;28.53;11.87;;;;;;;;;;5054825;28;20498;-80
2023/01/27 01:16:18;;;;;;;28.73;12.57;;;;;;;;;;5055977;28;20044;-75
2023/01/27 01:18:44;;;;;;;29.52;12.73;;;;;;;;;;5054134;28;20021;-80
2023/01/27 01:21:11;;;;;;;28.63;11.17;;;;;;;;;;5054155;28;20033;-75
2023/01/27 01:23:38;;;;;;;28.60;11.10;;;;;;;;;;5055496;28;20025;-76
2023/01/27 01:26:04;;;;;;;30.80;12.47;;;;;;;;;;5053938;28;20041;-80
2023/01/27 01:28:29;;;;;;;28.67;11.07;;;;;;;;;;5055502;28;20031;-79
2023/01/27 01:31:03;;;;;;;26.03;10.87;;;;;;;;;;5054191;28;20025;-75
2023/01/27 01:33:28;;;;;;;27.77;11.50;;;;;;;;;;5054027;28;20139;-80
2023/01/27 01:35:54;;;;;;;26.97;11.27;;;;;;;;;;5055334;28;20364;-75
2023/01/27 01:38:19;;;;;;;25.30;12.00;;;;;;;;;;5037518;28;20366;-80
2023/01/27 01:40:46;;;;;;;26.77;10.87;;;;;;;;;;5055502;28;20100;-75
2023/01/27 01:43:16;;;;;;;25.23;10.30;;;;;;;;;;5053416;28;20388;-75
2023/01/27 01:45:54;;;;;;;23.77;9.77;;;;;;;;;;5052624;28;20032;-75
2023/01/27 01:48:25;;;;;;;27.10;11.73;;;;;;;;;;5053657;28;20505;-80
2023/01/27 01:51:04;;;;;;;27.50;10.07;;;;;;;;;;5055011;28;20566;-75
2023/01/27 01:53:59;;;;;;;29.07;10.23;;;;;;;;;;5053557;28;20114;-75
2023/01/27 01:56:36;;;;;;;27.57;10.20;;;;;;;;;;5053069;28;20032;-74
2023/01/27 01:59:08;;;;;;;25.37;10.67;;;;;;;;;;5055180;28;20553;-74
2023/01/27 02:01:34;;;;;;;23.70;11.20;;;;;;;;;;5053358;28;20032;-81
2023/01/27 02:04:04;;;;;;;23.73;10.93;;;;;;;;;;5053447;28;20025;-75
2023/01/27 02:06:37;;;;;;;25.60;10.57;;;;;;;;;;5053148;28;20341;-74
2023/01/27 02:09:02;;;;;;;23.73;10.50;;;;;;;;;;5053372;28;20411;-79
2023/01/27 02:11:28;;;;;;;24.93;10.67;;;;;;;;;;5053106;28;20078;-75
2023/01/27 02:13:53;;;;;;;21.67;10.00;;;;;;;;;;5053344;28;20055;-79
2023/01/27 02:16:19;;;;;;;25.43;9.97;;;;;;;;;;5053244;28;20033;-80
2023/01/27 02:18:44;;;;;;;23.47;10.07;;;;;;;;;;5054496;28;20031;-79
2023/01/27 02:21:12;;;;;;;24.60;10.23;;;;;;;;;;5054798;28;20021;-75
2023/01/27 02:23:56;;;;;;;23.97;10.50;;;;;;;;;;5054379;28;20025;-75
2023/01/27 02:26:47;;;;;;;24.63;9.90;;;;;;;;;;5054583;28;20044;-74
2023/01/27 02:29:14;;;;;;;22.23;10.02;;;;;;;;;;5052228;28;20060;-74
2023/01/27 02:31:42;;;;;;;19.63;9.63;;;;;;;;;;5054529;28;20108;-80
2023/01/27 02:34:15;;;;;;;25.50;11.40;;;;;;;;;;5054290;28;20100;-79
2023/01/27 02:36:48;;;;;;;24.13;10.40;;;;;;;;;;5054229;28;20043;-79
2023/01/27 02:39:15;;;;;;;21.03;10.13;;;;;;;;;;5052701;28;20025;-74
2023/01/27 02:41:51;;;;;;;25.80;10.90;;;;;;;;;;5052605;28;20025;-73
2023/01/27 02:44:16;;;;;;;23.60;10.17;;;;;;;;;;5036456;28;20475;-79
2023/01/27 02:46:42;;;;;;;22.17;10.47;;;;;;;;;;5052460;28;20059;-79
2023/01/27 02:49:08;;;;;;;20.70;9.63;;;;;;;;;;5054077;28;20395;-78
2023/01/27 02:51:33;;;;;;;24.03;9.37;;;;;;;;;;5052909;28;20039;-75
2023/01/27 02:53:59;;;;;;;21.20;9.00;;;;;;;;;;5052252;28;20495;-80
2023/01/27 02:56:25;;;;;;;20.70;10.47;;;;;;;;;;5052326;28;20066;-75
2023/01/27 02:58:50;;;;;;;23.47;9.57;;;;;;;;;;5052037;28;20402;-75
2023/01/27 03:01:16;;;;;;;24.37;10.20;;;;;;;;;;5053503;28;20036;-74
2023/01/27 03:03:46;;;;;;;19.80;10.17;;;;;;;;;;5051902;28;20025;-80
2023/01/27 03:06:15;;;;;;;23.20;9.37;;;;;;;;;;5051901;28;20028;-74
2023/01/27 03:08:40;;;;;;;21.53;10.80;;;;;;;;;;5052471;28;20440;-74
2023/01/27 03:11:07;;;;;;;23.83;9.87;;;;;;;;;;5053543;28;20124;-81
2023/01/27 03:13:33;;;;;;;21.80;10.00;;;;;;;;;;5051866;28;20024;-74
2023/01/27 03:18:46;;;;;;;22.17;9.70;;;;;;;;;;5053732;28;20047;-74
2023/01/27 03:21:12;;;;;;;22.20;9.27;;;;;;;;;;5053055;28;20039;-80
2023/01/27 03:23:38;;;;;;;22.67;11.37;;;;;;;;;;5052263;28;20028;-80
2023/01/27 03:26:08;;;;;;;20.93;9.63;;;;;;;;;;5053442;28;20029;-80
2023/01/27 03:28:34;;;;;;;22.60;10.27;;;;;;;;;;5051849;28;20038;-74
2023/01/27 03:31:18;;;;;;;19.70;9.60;;;;;;;;;;5053799;28;20119;-79
2023/01/27 03:33:44;;;;;;;29.67;11.33;;;;;;;;;;5051932;28;20040;-75
2023/01/27 03:47:06;;;;;;;21.07;9.63;;;;;;;;;;5052942;28;20219;-80
2023/01/27 03:49:31;;;;;;;23.67;9.73;;;;;;;;;;5053001;28;20116;-74
2023/01/27 03:51:57;;;;;;;22.47;9.83;;;;;;;;;;5052629;28;20423;-78
2023/01/27 03:54:22;;;;;;;20.87;9.97;;;;;;;;;;5051144;28;20025;-74
2023/01/27 03:56:47;;;;;;;17.37;7.57;;;;;;;;;;5051062;28;20029;-75
2023/01/27 03:59:13;;;;;;;19.40;9.23;;;;;;;;;;5052601;28;20032;-74
2023/01/27 04:01:39;;;;;;;21.30;9.73;;;;;;;;;;5051556;28;20459;-74
2023/01/27 04:06:55;;;;;;;23.07;9.13;;;;;;;;;;5053132;28;20040;-80
2023/01/27 04:09:23;;;;;;;22.30;9.57;;;;;;;;;;5052802;28;20025;-73
2023/01/27 04:11:57;;;;;;;22.20;9.77;;;;;;;;;;5051378;28;20506;-75
2023/01/27 04:14:31;;;;;;;23.77;9.17;;;;;;;;;;5051640;28;20528;-72
2023/01/27 04:17:01;;;;;;;21.37;8.53;;;;;;;;;;5052889;28;20028;-75
2023/01/27 04:19:27;;;;;;;26.50;9.27;;;;;;;;;;5051653;28;20025;-80
2023/01/27 04:21:55;;;;;;;20.33;9.47;;;;;;;;;;5053197;28;20032;-80
2023/01/27 04:24:23;;;;;;;24.43;9.57;;;;;;;;;;5051189;28;20036;-80
2023/01/27 04:27:02;;;;;;;19.70;9.30;;;;;;;;;;5053581;28;20057;-80
2023/01/27 04:29:36;;;;;;;27.57;9.87;;;;;;;;;;5033208;28;20075;-74
2023/01/27 04:32:03;;;;;;;21.93;9.93;;;;;;;;;;5052943;28;20037;-80
2023/01/27 04:34:31;;;;;;;22.90;8.93;;;;;;;;;;5052569;28;20044;-80
2023/01/27 04:36:56;;;;;;;20.60;8.43;;;;;;;;;;5051213;28;20024;-80
2023/01/27 04:39:23;;;;;;;26.63;9.67;;;;;;;;;;5052487;28;20392;-79
2023/01/27 04:41:50;;;;;;;21.73;8.63;;;;;;;;;;5052680;28;20025;-75
2023/01/27 04:44:15;;;;;;;22.10;9.93;;;;;;;;;;5050480;28;20140;-80
2023/01/27 04:46:40;;;;;;;20.80;9.50;;;;;;;;;;5052140;28;20428;-75
2023/01/27 04:49:07;;;;;;;18.87;8.10;;;;;;;;;;5050796;28;20035;-75
2023/01/27 04:51:33;;;;;;;21.03;8.43;;;;;;;;;;5052374;28;20025;-80
2023/01/27 04:53:59;;;;;;;20.10;8.80;;;;;;;;;;5051395;28;20020;-80
2023/01/27 04:56:30;;;;;;;21.77;9.27;;;;;;;;;;5051283;28;20119;-75
2023/01/27 04:59:01;;;;;;;19.90;8.03;;;;;;;;;;5050899;28;20116;-81
2023/01/27 05:01:27;;;;;;;19.77;7.80;;;;;;;;;;5050710;28;20074;-80
2023/01/27 05:03:53;;;;;;;23.47;9.43;;;;;;;;;;5051995;28;20029;-74
2023/01/27 05:06:20;;;;;;;20.93;8.00;;;;;;;;;;5034705;28;20040;-78
2023/01/27 05:08:45;;;;;;;22.77;9.30;;;;;;;;;;5050915;28;20032;-81
2023/01/27 05:11:11;;;;;;;19.83;7.97;;;;;;;;;;5052144;28;20449;-75
2023/01/27 05:13:37;;;;;;;18.33;7.90;;;;;;;;;;5051286;28;20033;-81
2023/01/27 05:16:17;;;;;;;24.63;8.57;;;;;;;;;;5050743;28;20500;-80
2023/01/27 05:18:46;;;;;;;18.70;8.07;;;;;;;;;;5051870;28;20029;-81
2023/01/27 05:21:16;;;;;;;20.57;9.13;;;;;;;;;;5054227;28;20665;-80
2023/01/27 05:23:42;;;;;;;20.57;8.33;;;;;;;;;;5054449;28;20039;-79
2023/01/27 05:26:22;;;;;;;20.27;7.80;;;;;;;;;;5054150;28;20032;-80
2023/01/27 05:28:48;;;;;;;18.90;8.30;;;;;;;;;;5054267;28;20132;-81
2023/01/27 05:31:19;;;;;;;17.30;6.97;;;;;;;;;;5055921;28;20398;-75
2023/01/27 05:33:48;;;;;;;15.53;6.80;;;;;;;;;;5055501;28;20048;-80
2023/01/27 05:36:16;;;;;;;18.27;6.87;;;;;;;;;;5054346;28;20025;-80
2023/01/27 05:38:41;;;;;;;19.50;6.43;;;;;;;;;;5055195;28;20116;-79
2023/01/27 05:41:09;;;;;;;16.60;7.47;;;;;;;;;;5053917;28;20060;-80
2023/01/27 05:43:36;;;;;;;17.60;7.30;;;;;;;;;;5053961;28;20045;-79
2023/01/27 05:46:12;;;;;;;22.30;6.80;;;;;;;;;;5053711;28;20049;-73
2023/01/27 05:48:43;;;;;;;16.80;6.70;;;;;;;;;;5053656;28;20063;-79
2023/01/27 05:51:10;;;;;;;17.73;7.20;;;;;;;;;;5055538;28;20107;-74
2023/01/27 05:53:36;;;;;;;15.53;7.07;;;;;;;;;;5055670;28;20269;-80
2023/01/27 05:56:03;;;;;;;17.10;7.37;;;;;;;;;;5054836;28;20036;-80
2023/01/27 05:58:28;;;;;;;17.43;7.50;;;;;;;;;;5054639;28;20052;-77
2023/01/27 06:00:54;;;;;;;18.87;7.23;;;;;;;;;;5053829;28;20519;-81
2023/01/27 06:03:20;;;;;;;18.43;7.80;;;;;;;;;;5055032;28;20492;-81
2023/01/27 06:05:55;;;;;;;19.23;7.97;;;;;;;;;;5055366;28;20040;-77
2023/01/27 06:08:22;;;;;;;19.03;7.20;;;;;;;;;;5054530;28;20032;-81
2023/01/27 06:10:48;;;;;;;15.57;6.90;;;;;;;;;;5054674;28;20047;-75
2023/01/27 06:13:14;;;;;;;16.90;7.13;;;;;;;;;;5053687;28;20029;-75
2023/01/27 06:15:42;;;;;;;14.33;6.87;;;;;;;;;;5054009;28;20499;-79
2023/01/27 06:18:08;;;;;;;15.27;6.20;;;;;;;;;;5053939;28;20025;-74
2023/01/27 06:20:33;;;;;;;17.10;6.73;;;;;;;;;;5055399;28;20037;-77
2023/01/27 06:23:00;;;;;;;16.93;6.70;;;;;;;;;;5054689;28;20036;-77
2023/01/27 06:25:26;;;;;;;13.00;6.60;;;;;;;;;;5054638;28;20392;-74
2023/01/27 06:27:56;;;;;;;17.90;7.83;;;;;;;;;;5052937;28;20036;-75
2023/01/27 06:30:22;;;;;;;17.57;7.77;;;;;;;;;;5036481;28;20052;-79
2023/01/27 06:32:48;;;;;;;21.20;8.23;;;;;;;;;;5052954;28;20033;-77
2023/01/27 06:35:14;;;;;;;18.20;7.37;;;;;;;;;;5054702;28;20055;-76
2023/01/27 06:37:39;;;;;;;17.90;7.80;;;;;;;;;;5054374;28;20025;-75
2023/01/27 06:40:05;;;;;;;20.60;7.43;;;;;;;;;;5053707;28;20037;-79
2023/01/27 06:42:31;;;;;;;16.57;7.13;;;;;;;;;;5052579;28;20032;-76
2023/01/27 06:44:56;;;;;;;10.53;5.37;;;;;;;;;;5052701;28;20040;-78
2023/01/27 06:47:22;;;;;;;13.00;5.80;;;;;;;;;;5054721;28;20488;-79
2023/01/27 06:49:47;;;;;;;21.90;6.97;;;;;;;;;;5052402;28;20048;-78
2023/01/27 06:52:13;;;;;;;17.13;7.37;;;;;;;;;;5052818;28;20495;-80
2023/01/27 06:54:38;;;;;;;16.43;6.73;;;;;;;;;;5052613;28;20029;-73
2023/01/27 06:57:04;;;;;;;17.93;7.13;;;;;;;;;;5052762;28;20032;-80
2023/01/27 06:59:29;;;;;;;15.37;5.87;;;;;;;;;;5054163;28;20453;-81
2023/01/27 07:01:55;;;;;;;16.10;6.10;;;;;;;;;;5052502;28;20029;-78
2023/01/27 07:04:21;;;;;;;12.77;5.87;;;;;;;;;;5052218;28;20476;-81
2023/01/27 07:06:46;;;;;;;16.17;6.73;;;;;;;;;;5053950;28;20473;-76
2023/01/27 07:09:12;;;;;;;14.20;6.47;;;;;;;;;;5054140;28;20063;-73
2023/01/27 07:11:38;;;;;;;13.77;5.93;;;;;;;;;;5052777;28;20029;-74
2023/01/27 07:14:04;;;;;;;18.27;7.30;;;;;;;;;;5054562;28;20457;-78
2023/01/27 07:16:29;;;;;;;15.67;6.47;;;;;;;;;;5052410;28;20021;-80
2023/01/27 07:18:54;;;;;;;14.07;6.47;;;;;;;;;;5052390;28;20025;-73
2023/01/27 07:21:20;;;;;;;14.20;5.83;;;;;;;;;;5054466;28;20025;-80
2023/01/27 07:23:45;;;;;;;19.33;7.60;;;;;;;;;;5052276;28;20494;-75
2023/01/27 07:26:11;;;;;;;10.27;5.50;;;;;;;;;;5053665;28;20520;-76
2023/01/27 07:28:36;;;;;;;19.60;8.40;;;;;;;;;;5053508;28;20071;-79
2023/01/27 07:31:02;;;;;;;15.10;6.50;;;;;;;;;;5052093;28;20166;-74
2023/01/27 07:33:28;;;;;;;15.33;6.97;;;;;;;;;;5054011;28;20047;-79
2023/01/27 07:35:54;;;;;;;14.97;6.53;;;;;;;;;;5052119;28;20033;-80
2023/01/27 07:38:21;;;;;;;15.43;6.33;;;;;;;;;;5053290;28;20029;-75
2023/01/27 07:40:47;;;;;;;15.17;5.80;;;;;;;;;;5053550;28;20080;-75
2023/01/27 07:43:13;;;;;;;17.57;6.70;;;;;;;;;;5052082;28;20080;-81
2023/01/27 07:45:39;;;;;;;14.20;7.10;;;;;;;;;;5053277;28;20063;-84
2023/01/27 07:48:07;;;;;;;13.13;6.80;;;;;;;;;;5052196;28;20473;-80
2023/01/27 07:50:34;;;;;;;15.97;5.53;;;;;;;;;;5052274;28;20036;-75
2023/01/27 07:53:02;;;;;;;14.03;5.87;;;;;;;;;;5052368;28;20028;-79
2023/01/27 07:55:28;;;;;;;13.27;6.37;;;;;;;;;;5053127;28;20028;-79
2023/01/27 07:57:54;;;;;;;14.07;6.17;;;;;;;;;;5051855;28;20492;-75
2023/01/27 08:00:20;;;;;;;12.00;5.47;;;;;;;;;;5051713;28;20052;-76
2023/01/27 08:02:53;;;;;;;16.70;6.30;;;;;;;;;;5052524;28;20037;-77
2023/01/27 08:05:21;;;;;;;13.77;6.13;;;;;;;;;;5054236;28;20460;-82
2023/01/27 08:07:46;;;;;;;15.17;5.97;;;;;;;;;;5051861;28;20123;-81
2023/01/27 08:10:12;;;;;;;20.93;5.70;;;;;;;;;;5052230;28;20090;-77
2023/01/27 08:12:38;;;;;;;14.87;6.30;;;;;;;;;;5051832;28;20265;-81
2023/01/27 08:15:04;;;;;;;14.07;5.87;;;;;;;;;;5051500;28;20025;-76
2023/01/27 08:17:30;;;;;;;19.57;8.03;;;;;;;;;;5051672;28;20097;-78
2023/01/27 08:19:56;;;;;;;17.60;5.77;;;;;;;;;;5051577;28;20119;-77
2023/01/27 08:22:21;;;;;;;14.17;6.63;;;;;;;;;;5051286;28;20160;-76
2023/01/27 08:24:50;;;;;;;13.43;5.83;;;;;;;;;;5052332;28;20389;-76
2023/01/27 08:27:16;;;;;;;13.70;5.90;;;;;;;;;;5050925;28;20036;-77
2023/01/27 08:29:43;;;;;;;11.87;5.70;;;;;;;;;;5052253;28;20079;-78
2023/01/27 08:32:09;;;;;;;12.23;6.60;;;;;;;;;;5052560;28;20061;-77
2023/01/27 08:34:36;;;;;;;15.07;6.70;;;;;;;;;;5052471;28;20060;-77
2023/01/27 08:37:02;;;;;;;11.13;5.37;;;;;;;;;;5050962;28;20037;-77
2023/01/27 08:39:28;;;;;;;14.10;6.37;;;;;;;;;;5052474;28;20079;-78
2023/01/27 08:41:54;;;;;;;14.30;5.37;;;;;;;;;;5034657;28;20033;-78
2023/01/27 08:44:19;;;;;;;10.53;5.07;;;;;;;;;;5051989;28;20115;-76
2023/01/27 08:46:45;;;;;;;20.10;6.23;;;;;;;;;;5051233;28;20079;-78
2023/01/27 08:49:14;;;;;;;12.80;5.70;;;;;;;;;;5050852;28;20032;-74
2023/01/27 08:51:41;;;;;;;13.47;5.67;;;;;;;;;;5052075;28;20052;-81
2023/01/27 08:54:07;;;;;;;10.77;4.67;;;;;;;;;;5035189;28;20044;-79
2023/01/27 08:56:34;;;;;;;10.27;4.70;;;;;;;;;;5055650;28;20028;-79
2023/01/27 08:59:00;;;;;;;10.97;5.50;;;;;;;;;;5054960;28;20170;-76
2023/01/27 09:01:26;;;;;;;11.40;5.47;;;;;;;;;;5054957;28;20025;-76
2023/01/27 09:03:52;;;;;;;10.93;5.20;;;;;;;;;;5054460;28;20027;-77
2023/01/27 09:06:18;;;;;;;12.57;5.30;;;;;;;;;;5055368;28;20040;-78
2023/01/27 09:09:07;;;;;;;14.37;5.60;;;;;;;;;;5054435;28;20487;-77
2023/01/27 09:11:29;;;;;;;10.37;5.57;;;;;;;;;;5054394;28;20033;-78
2023/01/27 09:13:55;;;;;;;14.23;5.83;;;;;;;;;;5055662;28;20078;-77
2023/01/27 09:16:21;;;;;;;8.83;5.20;;;;;;;;;;5054127;28;20426;-77
2023/01/27 09:18:47;;;;;;;11.40;4.97;;;;;;;;;;5054099;28;20075;-77
2023/01/27 09:21:12;;;;;;;14.63;6.10;;;;;;;;;;5054467;28;20036;-76
2023/01/27 09:23:38;;;;;;;9.60;4.83;;;;;;;;;;5054125;28;20033;-77
2023/01/27 09:26:04;;;;;;;16.10;6.03;;;;;;;;;;5055403;28;20036;-76
2023/01/27 09:28:29;;;;;;;11.97;6.03;;;;;;;;;;5054001;28;20124;-75
2023/01/27 09:34:46;;;;;;;12.63;5.23;;;;;;;;;;5055214;28;20106;-74
2023/01/27 09:37:12;;;;;;;12.77;5.93;;;;;;;;;;5054745;28;20040;-76
2023/01/27 09:39:50;;;;;;;12.23;5.33;;;;;;;;;;5053850;28;20032;-77
2023/01/27 09:42:34;;;;;;;10.67;5.27;;;;;;;;;;5053348;28;20033;-78
2023/01/27 09:45:46;;;;;;;11.53;5.13;;;;;;;;;;5053709;28;20408;-75
2023/01/27 09:48:25;;;;;;;14.23;5.57;;;;;;;;;;5036439;28;20401;-77
2023/01/27 09:50:59;;;;;;;12.77;5.70;;;;;;;;;;5053468;28;20142;-77
2023/01/27 09:54:02;;;;;;;11.70;4.88;;;;;;;;;;5045772;28;20496;-78
2023/01/27 09:56:55;;;;;;;12.30;5.22;;;;;;;;;;5053415;28;20333;-77
2023/01/27 09:59:26;;;;;;;17.93;5.50;;;;;;;;;;5053807;28;20036;-76
2023/01/27 10:02:07;;;;;;;12.13;5.25;;;;;;;;;;5053464;28;20065;-75
2023/01/27 10:05:00;;;;;;;14.50;5.07;;;;;;;;;;5053483;28;20025;-75
2023/01/27 10:08:34;;;;;;;10.00;5.23;;;;;;;;;;5053206;28;20116;-78
2023/01/27 10:11:06;;;;;;;10.17;5.47;;;;;;;;;;4982539;28;20038;-78
2023/01/27 10:13:38;;;;;;;10.30;4.70;;;;;;;;;;5045014;28;20091;-75
2023/01/27 10:16:09;;;;;;;10.60;4.50;;;;;;;;;;5053586;28;20021;-74
2023/01/27 10:19:03;;;;;;;9.25;5.25;;;;;;;;;;5053070;28;20056;-80
2023/01/27 10:21:42;;;;;;;15.33;6.93;;;;;;;;;;5053268;28;20051;-77
2023/01/27 10:24:17;;;;;;;13.70;5.60;;;;;;;;;;5054162;28;20130;-77
2023/01/27 10:26:54;;;;;;;14.73;5.70;;;;;;;;;;5053402;28;20075;-74
2023/01/27 10:29:38;;;;;;;11.50;5.30;;;;;;;;;;5054995;28;20075;-78
2023/01/27 10:32:20;;;;;;;13.57;5.63;;;;;;;;;;5053431;28;20472;-78
2023/01/27 10:35:19;;;;;;;12.50;6.18;;;;;;;;;;5053137;28;20445;-75
2023/01/27 10:38:12;;;;;;;18.20;6.47;;;;;;;;;;5051167;28;20037;-76
2023/01/27 10:41:17;;;;;;;11.53;5.40;;;;;;;;;;5053928;28;20194;-80
2023/01/27 10:44:15;;;;;;;12.30;5.97;;;;;;;;;;5052363;28;20055;-80
2023/01/27 10:47:07;;;;;;;13.90;6.57;;;;;;;;;;5053471;28;20079;-77
2023/01/27 10:49:39;;;;;;;9.57;5.43;;;;;;;;;;5042608;28;20408;-79
2023/01/27 10:52:14;;;;;;;14.07;5.45;;;;;;;;;;5052340;28;20086;-75
2023/01/27 10:54:56;;;;;;;12.80;6.30;;;;;;;;;;5053742;28;20136;-78
2023/01/27 10:57:40;;;;;;;10.53;5.80;;;;;;;;;;5053920;28;20039;-74
2023/01/27 11:00:28;;;;;;;9.10;5.23;;;;;;;;;;5052335;28;20093;-79
2023/01/27 11:03:01;;;;;;;12.07;6.03;;;;;;;;;;5052413;28;20099;-73
2023/01/27 11:05:40;;;;;;;10.27;5.73;;;;;;;;;;5053461;28;20056;-79
2023/01/27 11:08:14;;;;;;;10.17;5.97;;;;;;;;;;5051923;28;20037;-78
2023/01/27 11:13:34;;;;;;;10.30;5.67;;;;;;;;;;5054267;28;20043;-75
2023/01/27 11:16:01;;;;;;;12.90;6.00;;;;;;;;;;5052558;28;20087;-79
2023/01/27 11:18:29;;;;;;;13.37;5.93;;;;;;;;;;5053542;28;20098;-75
2023/01/27 11:20:59;;;;;;;13.67;6.30;;;;;;;;;;5052373;28;20021;-79
2023/01/27 11:23:30;;;;;;;14.30;7.60;;;;;;;;;;5053443;28;20495;-76
2023/01/27 11:26:10;;;;;;;13.90;6.32;;;;;;;;;;5051918;28;20036;-76
2023/01/27 11:28:43;;;;;;;12.57;6.43;;;;;;;;;;5051925;28;20041;-75
2023/01/27 11:31:49;;;;;;;12.83;6.23;;;;;;;;;;5051885;28;20037;-76
2023/01/27 11:34:24;;;;;;;10.40;4.77;;;;;;;;;;5053515;28;20056;-79
2023/01/27 11:36:49;;;;;;;14.93;5.53;;;;;;;;;;5053017;28;20040;-81
2023/01/27 11:39:31;;;;;;;11.73;5.40;;;;;;;;;;5051959;28;20036;-75
2023/01/27 11:41:57;;;;;;;;;;;;;;;;;;5053147;28;20032;-79
2023/01/27 11:44:33;;;;;;;12.47;6.33;;;;;;;;;;5051217;28;20360;-79
2023/01/27 11:46:59;;;;;;;15.10;6.33;;;;;;;;;;5053190;28;20032;-75
2023/01/27 11:49:34;;;;;;;11.57;6.30;;;;;;;;;;5035588;28;20503;-73
2023/01/27 11:52:13;;;;;;;12.23;5.53;;;;;;;;;;5051573;28;20116;-78
2023/01/27 11:54:51;;;;;;;10.33;5.50;;;;;;;;;;5053166;28;20021;-74
2023/01/27 11:57:20;;;;;;;9.77;4.70;;;;;;;;;;5053264;28;20106;-73
2023/01/27 11:59:49;;;;;;;14.27;5.73;;;;;;;;;;5051472;28;20102;-75
2023/01/27 12:02:20;;;;;;;11.73;5.33;;;;;;;;;;5051986;28;20047;-78
2023/01/27 12:05:11;;;;;;;14.95;6.57;;;;;;;;;;5051314;28;20036;-75
2023/01/27 12:07:53;;;;;;;13.37;5.33;;;;;;;;;;5051292;28;20036;-80
2023/01/27 12:10:41;;;;;;;10.13;4.93;;;;;;;;;;5052024;28;20091;-82
2023/01/27 12:13:17;;;;;;;10.97;5.80;;;;;;;;;;5052253;28;20024;-73
2023/01/27 12:16:04;;;;;;;11.43;5.47;;;;;;;;;;5051841;28;20098;-73
2023/01/27 12:18:32;;;;;;;10.10;5.43;;;;;;;;;;5051497;28;20017;-81
2023/01/27 12:21:00;;;;;;;8.33;5.30;;;;;;;;;;5051034;28;20025;-79
2023/01/27 12:23:32;;;;;;;14.77;5.43;;;;;;;;;;5050959;28;20025;-76
2023/01/27 12:26:00;;;;;;;11.40;5.93;;;;;;;;;;5051228;28;20035;-76
2023/01/27 12:29:17;;;;;;;16.37;6.40;;;;;;;;;;5052834;28;20131;-75
2023/01/27 12:31:50;;;;;;;19.43;6.87;;;;;;;;;;5054751;28;20075;-79
2023/01/27 12:34:21;;;;;;;;;;;;;;;;;;5057372;28;20122;-73
2023/01/27 12:36:48;;;;;;;17.83;6.00;;;;;;;;;;5056904;28;19944;-75
2023/01/27 12:39:38;;;;;;;10.93;5.10;;;;;;;;;;5055395;28;20025;-79
2023/01/27 12:42:04;;;;;;;10.50;5.57;;;;;;;;;;5055686;28;20024;-79
2023/01/27 12:44:42;;;;;;;14.77;6.77;;;;;;;;;;5054852;28;20051;-73
2023/01/27 12:47:23;;;;;;;14.57;5.93;;;;;;;;;;5055946;28;20369;-80
2023/01/27 12:49:50;;;;;;;13.33;5.03;;;;;;;;;;5057633;28;20040;-78
2023/01/27 12:52:20;;;;;;;14.60;6.53;;;;;;;;;;5057967;28;20025;-82
2023/01/27 12:54:47;;;;;;;14.60;4.97;;;;;;;;;;5060712;28;20013;-82
2023/01/27 12:57:21;;;;;;;11.67;5.53;;;;;;;;;;5060138;28;20087;-80
2023/01/27 12:59:54;;;;;;;17.00;7.40;;;;;;;;;;5056675;28;20025;-80
2023/01/27 13:02:24;;;;;;;14.40;6.17;;;;;;;;;;5059964;28;20028;-78
2023/01/27 13:04:57;;;;;;;14.83;6.53;;;;;;;;;;5058857;28;20131;-82
2023/01/27 13:07:26;;;;;;;13.40;5.87;;;;;;;;;;5055369;28;20132;-78
2023/01/27 13:09:55;;;;;;;13.60;6.17;;;;;;;;;;5056119;28;20545;-79
2023/01/27 13:12:29;;;;;;;11.87;6.60;;;;;;;;;;5057204;28;20032;-80
2023/01/27 13:14:57;;;;;;;14.67;7.53;;;;;;;;;;5055533;28;20471;-81
2023/01/27 13:17:36;;;;;;;26.97;10.60;;;;;;;;;;5058727;28;20029;-83
2023/01/27 13:20:22;;;;;;;15.53;8.17;;;;;;;;;;5056458;28;20040;-77
2023/01/27 13:22:53;;;;;;;12.17;6.37;;;;;;;;;;5055474;28;20021;-81
2023/01/27 13:25:29;;;;;;;15.03;6.53;;;;;;;;;;5056943;28;20040;-83
2023/01/27 13:27:58;;;;;;;11.20;5.87;;;;;;;;;;5055526;28;20024;-80
2023/01/27 13:30:40;;;;;;;14.27;6.83;;;;;;;;;;5055960;28;20025;-78
2023/01/27 13:33:23;;;;;;;11.52;6.68;;;;;;;;;;5056866;28;20025;-77
2023/01/27 13:36:14;;;;;;;15.90;6.67;;;;;;;;;;5057043;28;20449;-76
2023/01/27 13:39:05;;;;;;;16.27;8.50;;;;;;;;;;5054078;28;20033;-83
2023/01/27 13:41:44;;;;;;;14.07;6.63;;;;;;;;;;5038282;28;20035;-84
2023/01/27 13:44:53;;;;;;;14.23;7.17;;;;;;;;;;5054535;28;20056;-78
2023/01/27 13:47:25;;;;;;;18.40;6.87;;;;;;;;;;5054894;28;20057;-82
2023/01/27 13:50:21;;;;;;;17.60;6.75;;;;;;;;;;5056006;28;20566;-76
2023/01/27 13:52:54;;;;;;;16.70;7.03;;;;;;;;;;5054586;28;20029;-79
2023/01/27 13:55:33;;;;;;;15.37;6.77;;;;;;;;;;5054799;28;20388;-83
2023/01/27 13:58:24;;;;;;;19.23;7.13;;;;;;;;;;5054846;28;20025;-77
2023/01/27 14:01:04;;;;;;;14.07;6.13;;;;;;;;;;5054846;28;20023;-76
2023/01/27 14:03:48;;;;;;;14.13;6.97;;;;;;;;;;5056005;28;20146;-78
2023/01/27 14:06:39;;;;;;;15.83;6.30;;;;;;;;;;5054189;28;20029;-78
2023/01/27 14:09:34;;;;;;;14.87;6.70;;;;;;;;;;5054480;28;20128;-82
2023/01/27 14:12:21;;;;;;;13.00;6.70;;;;;;;;;;5054351;28;20110;-83
2023/01/27 14:14:53;;;;;;;15.73;7.07;;;;;;;;;;5054513;28;20044;-83
2023/01/27 14:17:37;;;;;;;15.67;7.00;;;;;;;;;;5055207;28;20061;-79
2023/01/27 14:20:06;;;;;;;19.43;6.93;;;;;;;;;;5054725;28;20035;-83
2023/01/27 14:23:02;;;;;;;15.07;6.40;;;;;;;;;;5054250;28;20385;-79
2023/01/27 14:25:50;;;;;;;15.80;8.10;;;;;;;;;;5053879;28;20028;-78
2023/01/27 14:28:35;;;;;;;16.10;7.53;;;;;;;;;;5054788;28;20033;-84
2023/01/27 14:31:16;;;;;;;17.03;6.07;;;;;;;;;;5053479;28;20025;-79
2023/01/27 14:34:01;;;;;;;16.43;6.13;;;;;;;;;;5053693;28;20035;-76
2023/01/27 14:36:35;;;;;;;15.57;6.13;;;;;;;;;;5053041;28;20017;-82
2023/01/27 14:39:10;;;;;;;12.60;6.13;;;;;;;;;;5054051;28;20021;-84
2023/01/27 14:41:35;;;;;;;14.87;6.43;;;;;;;;;;5053675;28;20029;-83
2023/01/27 14:44:41;;;;;;;12.33;5.90;;;;;;;;;;5054514;28;20401;-76
2023/01/27 14:47:30;;;;;;;15.73;7.00;;;;;;;;;;5053672;28;20025;-84
2023/01/27 14:50:15;;;;;;;16.63;7.00;;;;;;;;;;5036928;28;20025;-76
2023/01/27 14:52:44;;;;;;;12.33;6.07;;;;;;;;;;5052925;28;20024;-83
2023/01/27 14:55:21;;;;;;;11.80;5.53;;;;;;;;;;5052874;28;20107;-78
2023/01/27 14:58:02;;;;;;;15.50;6.57;;;;;;;;;;5053470;28;20035;-77
2023/01/27 15:01:07;;;;;;;17.60;7.00;;;;;;;;;;5052734;28;20480;-78
2023/01/27 15:03:45;;;;;;;21.20;7.50;;;;;;;;;;5053187;28;20086;-75
2023/01/27 15:06:19;;;;;;;21.53;7.63;;;;;;;;;;5052877;28;20503;-75
2023/01/27 15:08:53;;;;;;;14.73;6.70;;;;;;;;;;5054329;28;20033;-81
2023/01/27 15:11:44;;;;;;;15.10;7.80;;;;;;;;;;5053192;28;20032;-82
2023/01/27 15:14:33;;;;;;;17.73;8.07;;;;;;;;;;5052405;28;20025;-81
2023/01/27 15:17:21;;;;;;;14.50;7.83;;;;;;;;;;5054581;28;20048;-77
2023/01/27 15:20:20;;;;;;;20.83;8.13;;;;;;;;;;5052922;28;20116;-81
2023/01/27 15:23:12;;;;;;;16.30;7.67;;;;;;;;;;5044456;28;20055;-81
2023/01/27 15:25:53;;;;;;;18.15;8.25;;;;;;;;;;5052119;28;20119;-77
2023/01/27 15:28:24;;;;;;;18.80;8.70;;;;;;;;;;5053795;28;20029;-84
2023/01/27 15:31:24;;;;;;;17.30;7.83;;;;;;;;;;5036382;28;20059;-86